sensor_id;sensor_type;location;lat;lon;timestamp;pressure;altitude;pressure_sealevel;temperature;humidity
63347;BME280;49472;49.880;8.650;2023-02-22T00:00:13;100037.25;;;12.51;57.01
63347;BME280;49472;49.880;8.650;2023-02-22T00:02:46;100042.75;;;12.46;57.42
63347;BME280;49472;49.880;8.650;2023-02-22T00:05:13;100038.50;;;12.56;56.94
63347;BME280;49472;49.880;8.650;2023-02-22T00:07:41;100029.44;;;12.73;56.23
63347;BME280;49472;49.880;8.650;2023-02-22T00:10:09;100026.06;;;12.73;56.17
63347;BME280;49472;49.880;8.650;2023-02-22T00:12:41;100031.25;;;12.41;56.82
63347;BME280;49472;49.880;8.650;2023-02-22T00:15:07;100032.13;;;12.30;57.08
63347;BME280;49472;49.880;8.650;2023-02-22T00:17:33;100021.00;;;12.41;57.27
63347;BME280;49472;49.880;8.650;2023-02-22T00:19:58;100023.75;;;12.91;55.72
63347;BME280;49472;49.880;8.650;2023-02-22T00:22:24;100029.09;;;11.92;58.38
63347;BME280;49472;49.880;8.650;2023-02-22T00:24:49;100019.44;;;12.49;57.45
63347;BME280;49472;49.880;8.650;2023-02-22T00:27:14;100026.00;;;12.42;56.64
63347;BME280;49472;49.880;8.650;2023-02-22T00:29:44;100017.72;;;12.38;56.71
63347;BME280;49472;49.880;8.650;2023-02-22T00:32:10;100019.31;;;12.51;57.11
63347;BME280;49472;49.880;8.650;2023-02-22T00:34:35;100025.94;;;12.53;56.25
63347;BME280;49472;49.880;8.650;2023-02-22T00:37:00;100021.94;;;12.07;57.97
63347;BME280;49472;49.880;8.650;2023-02-22T00:39:28;100025.91;;;12.00;57.93
63347;BME280;49472;49.880;8.650;2023-02-22T00:41:54;100017.13;;;11.70;58.49
63347;BME280;49472;49.880;8.650;2023-02-22T00:44:19;100020.47;;;11.82;58.26
63347;BME280;49472;49.880;8.650;2023-02-22T00:46:45;100016.13;;;12.05;58.11
63347;BME280;49472;49.880;8.650;2023-02-22T00:49:10;100013.75;;;12.13;58.01
63347;BME280;49472;49.880;8.650;2023-02-22T00:51:35;100009.66;;;12.43;57.01
63347;BME280;49472;49.880;8.650;2023-02-22T00:54:01;100008.25;;;11.74;57.40
63347;BME280;49472;49.880;8.650;2023-02-22T00:56:26;100009.84;;;11.43;58.90
63347;BME280;49472;49.880;8.650;2023-02-22T00:58:52;100000.84;;;11.49;59.10
63347;BME280;49472;49.880;8.650;2023-02-22T01:01:17;99997.09;;;11.87;57.90
63347;BME280;49472;49.880;8.650;2023-02-22T01:03:42;99992.59;;;12.11;56.53
63347;BME280;49472;49.880;8.650;2023-02-22T01:06:08;99992.69;;;12.10;57.87
63347;BME280;49472;49.880;8.650;2023-02-22T01:08:33;99989.00;;;12.03;57.91
63347;BME280;49472;49.880;8.650;2023-02-22T01:10:58;99983.31;;;11.99;57.30
63347;BME280;49472;49.880;8.650;2023-02-22T01:13:24;99984.81;;;12.02;57.45
63347;BME280;49472;49.880;8.650;2023-02-22T01:15:49;99988.00;;;11.94;57.15
63347;BME280;49472;49.880;8.650;2023-02-22T01:18:15;99986.47;;;11.25;60.58
63347;BME280;49472;49.880;8.650;2023-02-22T01:20:41;99976.47;;;11.88;57.88
63347;BME280;49472;49.880;8.650;2023-02-22T01:23:11;99981.75;;;11.64;58.56
63347;BME280;49472;49.880;8.650;2023-02-22T01:25:36;99978.34;;;11.86;57.89
63347;BME280;49472;49.880;8.650;2023-02-22T01:28:03;99967.34;;;11.95;57.64
63347;BME280;49472;49.880;8.650;2023-02-22T01:30:32;99967.94;;;11.99;57.04
63347;BME280;49472;49.880;8.650;2023-02-22T01:32:57;99968.84;;;11.98;56.97
63347;BME280;49472;49.880;8.650;2023-02-22T01:35:26;99959.38;;;12.10;57.35
63347;BME280;49472;49.880;8.650;2023-02-22T01:37:52;99962.66;;;12.01;57.41
63347;BME280;49472;49.880;8.650;2023-02-22T01:40:21;99954.75;;;12.04;56.79
63347;BME280;49472;49.880;8.650;2023-02-22T01:42:50;99952.31;;;12.02;57.08
63347;BME280;49472;49.880;8.650;2023-02-22T01:48:01;99949.19;;;11.55;58.51
63347;BME280;49472;49.880;8.650;2023-02-22T01:50:31;99943.31;;;11.76;57.77
63347;BME280;49472;49.880;8.650;2023-02-22T01:52:58;99947.47;;;11.88;57.06
63347;BME280;49472;49.880;8.650;2023-02-22T01:55:24;99941.06;;;11.50;58.46
63347;BME280;49472;49.880;8.650;2023-02-22T01:57:49;99946.84;;;11.63;58.42
63347;BME280;49472;49.880;8.650;2023-02-22T02:00:17;99941.56;;;11.76;58.24
63347;BME280;49472;49.880;8.650;2023-02-22T02:02:49;99939.34;;;11.71;57.89
63347;BME280;49472;49.880;8.650;2023-02-22T02:05:18;99935.03;;;11.40;58.62
63347;BME280;49472;49.880;8.650;2023-02-22T02:07:44;99937.16;;;11.67;57.89
63347;BME280;49472;49.880;8.650;2023-02-22T02:10:12;99943.06;;;11.79;57.89
63347;BME280;49472;49.880;8.650;2023-02-22T02:12:43;99941.19;;;11.81;57.14
63347;BME280;49472;49.880;8.650;2023-02-22T02:15:23;99935.41;;;11.67;58.45
63347;BME280;49472;49.880;8.650;2023-02-22T02:17:52;99926.34;;;11.63;57.56
63347;BME280;49472;49.880;8.650;2023-02-22T02:23:07;99934.34;;;11.70;57.11
63347;BME280;49472;49.880;8.650;2023-02-22T02:25:45;99929.38;;;11.68;57.83
63347;BME280;49472;49.880;8.650;2023-02-22T02:28:55;99929.22;;;11.70;57.98
63347;BME280;49472;49.880;8.650;2023-02-22T02:34:17;99919.03;;;10.70;61.30
63347;BME280;49472;49.880;8.650;2023-02-22T02:37:07;99920.31;;;10.87;60.83
63347;BME280;49472;49.880;8.650;2023-02-22T02:42:10;99920.88;;;11.57;57.77
63347;BME280;49472;49.880;8.650;2023-02-22T02:44:40;99927.63;;;10.69;61.10
63347;BME280;49472;49.880;8.650;2023-02-22T02:47:13;99922.41;;;11.04;60.10
63347;BME280;49472;49.880;8.650;2023-02-22T02:49:54;99919.19;;;11.46;58.48
63347;BME280;49472;49.880;8.650;2023-02-22T02:52:23;99918.22;;;10.92;59.65
63347;BME280;49472;49.880;8.650;2023-02-22T02:54:50;99912.75;;;10.97;59.91
63347;BME280;49472;49.880;8.650;2023-02-22T02:57:16;99915.91;;;10.89;60.03
63347;BME280;49472;49.880;8.650;2023-02-22T02:59:41;99914.38;;;10.75;60.44
63347;BME280;49472;49.880;8.650;2023-02-22T03:07:50;99894.50;;;10.90;59.85
63347;BME280;49472;49.880;8.650;2023-02-22T03:10:42;99898.09;;;11.10;59.51
63347;BME280;49472;49.880;8.650;2023-02-22T03:13:20;99898.78;;;11.12;59.08
63347;BME280;49472;49.880;8.650;2023-02-22T03:15:55;99891.13;;;10.90;59.60
63347;BME280;49472;49.880;8.650;2023-02-22T03:21:12;99890.97;;;11.25;58.37
63347;BME280;49472;49.880;8.650;2023-02-22T03:23:48;99890.66;;;11.07;58.96
63347;BME280;49472;49.880;8.650;2023-02-22T03:26:20;99901.84;;;10.61;60.46
63347;BME280;49472;49.880;8.650;2023-02-22T03:28:50;99891.00;;;10.91;59.51
63347;BME280;49472;49.880;8.650;2023-02-22T03:31:24;99883.91;;;10.95;59.51
63347;BME280;49472;49.880;8.650;2023-02-22T03:34:07;99884.03;;;11.04;58.84
63347;BME280;49472;49.880;8.650;2023-02-22T03:36:40;99884.56;;;11.19;58.17
63347;BME280;49472;49.880;8.650;2023-02-22T03:39:10;99882.25;;;11.16;57.84
63347;BME280;49472;49.880;8.650;2023-02-22T03:41:43;99876.66;;;11.11;58.78
63347;BME280;49472;49.880;8.650;2023-02-22T03:44:15;99882.97;;;11.07;58.20
63347;BME280;49472;49.880;8.650;2023-02-22T03:46:44;99880.19;;;11.10;58.01
63347;BME280;49472;49.880;8.650;2023-02-22T03:49:28;99883.78;;;11.07;58.03
63347;BME280;49472;49.880;8.650;2023-02-22T03:51:57;99890.69;;;9.80;62.92
63347;BME280;49472;49.880;8.650;2023-02-22T03:54:23;99882.47;;;10.23;61.50
63347;BME280;49472;49.880;8.650;2023-02-22T03:56:52;99876.72;;;10.43;61.22
63347;BME280;49472;49.880;8.650;2023-02-22T03:59:20;99878.78;;;10.83;58.96
63347;BME280;49472;49.880;8.650;2023-02-22T04:01:52;99886.00;;;10.90;59.08
63347;BME280;49472;49.880;8.650;2023-02-22T04:04:17;99882.88;;;10.97;58.44
63347;BME280;49472;49.880;8.650;2023-02-22T04:06:43;99882.50;;;10.91;58.93
63347;BME280;49472;49.880;8.650;2023-02-22T04:09:09;99878.81;;;10.95;58.05
63347;BME280;49472;49.880;8.650;2023-02-22T04:11:34;99883.78;;;10.96;58.10
63347;BME280;49472;49.880;8.650;2023-02-22T04:14:00;99878.00;;;10.94;59.02
63347;BME280;49472;49.880;8.650;2023-02-22T04:16:25;99879.38;;;10.87;58.84
63347;BME280;49472;49.880;8.650;2023-02-22T04:18:50;99881.97;;;10.53;59.47
63347;BME280;49472;49.880;8.650;2023-02-22T04:21:16;99878.34;;;10.67;58.45
63347;BME280;49472;49.880;8.650;2023-02-22T04:23:41;99869.97;;;10.65;58.98
63347;BME280;49472;49.880;8.650;2023-02-22T04:26:06;99868.59;;;10.72;58.83
63347;BME280;49472;49.880;8.650;2023-02-22T04:28:31;99869.06;;;10.66;58.66
63347;BME280;49472;49.880;8.650;2023-02-22T04:30:57;99864.84;;;10.42;59.31
63347;BME280;49472;49.880;8.650;2023-02-22T04:33:22;99872.41;;;10.44;59.31
63347;BME280;49472;49.880;8.650;2023-02-22T04:35:48;99871.94;;;10.39;59.21
63347;BME280;49472;49.880;8.650;2023-02-22T04:38:13;99871.31;;;11.90;57.11
63347;BME280;49472;49.880;8.650;2023-02-22T04:40:39;99859.00;;;12.56;53.91
63347;BME280;49472;49.880;8.650;2023-02-22T04:43:04;99863.00;;;10.67;57.94
63347;BME280;49472;49.880;8.650;2023-02-22T04:45:29;99863.03;;;10.56;58.79
63347;BME280;49472;49.880;8.650;2023-02-22T04:47:55;99869.53;;;10.71;58.91
63347;BME280;49472;49.880;8.650;2023-02-22T04:50:20;99857.53;;;10.49;59.79
63347;BME280;49472;49.880;8.650;2023-02-22T04:52:46;99865.25;;;10.25;60.15
63347;BME280;49472;49.880;8.650;2023-02-22T04:55:11;99859.06;;;10.52;58.98
63347;BME280;49472;49.880;8.650;2023-02-22T04:57:36;99855.44;;;10.65;58.50
63347;BME280;49472;49.880;8.650;2023-02-22T05:00:04;99858.94;;;10.64;58.67
63347;BME280;49472;49.880;8.650;2023-02-22T05:02:30;99857.72;;;10.24;59.43
63347;BME280;49472;49.880;8.650;2023-02-22T05:04:55;99848.81;;;10.40;58.91
63347;BME280;49472;49.880;8.650;2023-02-22T05:07:20;99857.13;;;10.20;59.72
63347;BME280;49472;49.880;8.650;2023-02-22T05:09:46;99862.94;;;10.22;59.84
63347;BME280;49472;49.880;8.650;2023-02-22T05:12:11;99856.19;;;10.10;60.21
63347;BME280;49472;49.880;8.650;2023-02-22T05:14:36;99859.84;;;9.94;60.49
63347;BME280;49472;49.880;8.650;2023-02-22T05:17:02;99853.19;;;10.27;60.39
63347;BME280;49472;49.880;8.650;2023-02-22T05:19:28;99857.28;;;10.30;59.04
63347;BME280;49472;49.880;8.650;2023-02-22T05:21:53;99853.44;;;10.35;59.17
63347;BME280;49472;49.880;8.650;2023-02-22T05:24:20;99843.94;;;10.37;58.58
63347;BME280;49472;49.880;8.650;2023-02-22T05:26:46;99852.78;;;10.33;58.99
63347;BME280;49472;49.880;8.650;2023-02-22T05:29:11;99845.13;;;10.33;58.92
63347;BME280;49472;49.880;8.650;2023-02-22T05:31:37;99843.22;;;10.35;59.44
63347;BME280;49472;49.880;8.650;2023-02-22T05:34:03;99854.06;;;10.39;59.19
63347;BME280;49472;49.880;8.650;2023-02-22T05:36:28;99844.16;;;10.46;58.65
63347;BME280;49472;49.880;8.650;2023-02-22T05:38:54;99847.19;;;10.28;58.99
63347;BME280;49472;49.880;8.650;2023-02-22T05:41:19;99849.28;;;10.46;58.92
63347;BME280;49472;49.880;8.650;2023-02-22T05:43:45;99846.97;;;10.54;58.21
63347;BME280;49472;49.880;8.650;2023-02-22T05:46:10;99852.47;;;10.25;59.37
63347;BME280;49472;49.880;8.650;2023-02-22T05:48:35;99843.06;;;10.03;59.75
63347;BME280;49472;49.880;8.650;2023-02-22T05:51:01;99849.63;;;10.30;59.68
63347;BME280;49472;49.880;8.650;2023-02-22T05:53:28;99832.66;;;12.45;54.45
63347;BME280;49472;49.880;8.650;2023-02-22T05:55:54;99833.25;;;10.55;57.69
63347;BME280;49472;49.880;8.650;2023-02-22T05:58:19;99846.00;;;10.21;59.71
63347;BME280;49472;49.880;8.650;2023-02-22T06:00:44;99838.47;;;10.42;59.16
63347;BME280;49472;49.880;8.650;2023-02-22T06:03:10;99839.19;;;10.44;59.03
63347;BME280;49472;49.880;8.650;2023-02-22T06:05:36;99841.72;;;10.33;59.21
63347;BME280;49472;49.880;8.650;2023-02-22T06:08:03;99840.66;;;10.13;59.90
63347;BME280;49472;49.880;8.650;2023-02-22T06:10:29;99839.47;;;10.17;60.40
63347;BME280;49472;49.880;8.650;2023-02-22T06:12:55;99845.63;;;10.14;60.32
63347;BME280;49472;49.880;8.650;2023-02-22T06:15:22;99856.53;;;10.16;59.96
63347;BME280;49472;49.880;8.650;2023-02-22T06:17:48;99848.44;;;9.76;61.46
63347;BME280;49472;49.880;8.650;2023-02-22T06:20:15;99855.16;;;10.24;60.08
63347;BME280;49472;49.880;8.650;2023-02-22T06:22:41;99847.59;;;10.22;60.44
63347;BME280;49472;49.880;8.650;2023-02-22T06:25:08;99854.03;;;10.50;59.28
63347;BME280;49472;49.880;8.650;2023-02-22T06:27:34;99859.81;;;10.18;60.22
63347;BME280;49472;49.880;8.650;2023-02-22T06:30:00;99858.66;;;9.76;62.22
63347;BME280;49472;49.880;8.650;2023-02-22T06:32:26;99860.13;;;10.03;61.38
63347;BME280;49472;49.880;8.650;2023-02-22T06:34:51;99866.97;;;10.02;61.64
63347;BME280;49472;49.880;8.650;2023-02-22T06:37:17;99863.91;;;10.32;60.70
63347;BME280;49472;49.880;8.650;2023-02-22T06:39:42;99860.31;;;10.57;59.62
63347;BME280;49472;49.880;8.650;2023-02-22T06:42:07;99858.59;;;10.69;59.25
63347;BME280;49472;49.880;8.650;2023-02-22T06:44:33;99848.16;;;10.61;59.28
63347;BME280;49472;49.880;8.650;2023-02-22T06:46:58;99853.25;;;10.50;59.63
63347;BME280;49472;49.880;8.650;2023-02-22T06:49:25;99857.31;;;10.41;60.06
63347;BME280;49472;49.880;8.650;2023-02-22T06:51:54;99856.16;;;10.68;59.60
63347;BME280;49472;49.880;8.650;2023-02-22T06:54:20;99851.94;;;10.78;58.87
63347;BME280;49472;49.880;8.650;2023-02-22T06:56:46;99854.88;;;10.62;59.32
63347;BME280;49472;49.880;8.650;2023-02-22T06:59:11;99854.28;;;10.81;59.77
63347;BME280;49472;49.880;8.650;2023-02-22T07:01:40;99853.84;;;11.19;58.15
63347;BME280;49472;49.880;8.650;2023-02-22T07:04:05;99850.31;;;13.38;53.31
63347;BME280;49472;49.880;8.650;2023-02-22T07:06:30;99854.38;;;13.41;52.65
63347;BME280;49472;49.880;8.650;2023-02-22T07:08:56;99858.81;;;13.68;52.33
63347;BME280;49472;49.880;8.650;2023-02-22T07:11:21;99868.56;;;13.64;52.54
63347;BME280;49472;49.880;8.650;2023-02-22T07:13:46;99874.38;;;13.66;52.72
63347;BME280;49472;49.880;8.650;2023-02-22T07:16:12;99878.69;;;13.66;53.47
63347;BME280;49472;49.880;8.650;2023-02-22T07:18:37;99886.44;;;12.35;56.80
63347;BME280;49472;49.880;8.650;2023-02-22T07:21:03;99888.84;;;11.73;59.99
63347;BME280;49472;49.880;8.650;2023-02-22T07:23:28;99884.63;;;12.26;57.98
63347;BME280;49472;49.880;8.650;2023-02-22T07:25:53;99894.06;;;12.25;58.09
63347;BME280;49472;49.880;8.650;2023-02-22T07:28:19;99891.81;;;12.11;58.52
63347;BME280;49472;49.880;8.650;2023-02-22T07:30:44;99886.91;;;12.80;56.13
63347;BME280;49472;49.880;8.650;2023-02-22T07:33:10;99896.50;;;12.27;57.92
63347;BME280;49472;49.880;8.650;2023-02-22T07:35:38;99897.50;;;12.66;57.33
63347;BME280;49472;49.880;8.650;2023-02-22T07:38:08;99901.47;;;13.20;55.50
63347;BME280;49472;49.880;8.650;2023-02-22T07:40:35;99906.22;;;12.85;56.20
63347;BME280;49472;49.880;8.650;2023-02-22T07:43:20;99903.84;;;13.02;55.80
63347;BME280;49472;49.880;8.650;2023-02-22T07:45:46;99909.28;;;13.19;55.19
63347;BME280;49472;49.880;8.650;2023-02-22T07:48:12;99907.75;;;12.97;55.23
63347;BME280;49472;49.880;8.650;2023-02-22T07:50:38;99911.72;;;13.11;55.25
63347;BME280;49472;49.880;8.650;2023-02-22T07:53:06;99911.69;;;13.01;55.72
63347;BME280;49472;49.880;8.650;2023-02-22T07:55:33;99908.00;;;12.32;56.89
63347;BME280;49472;49.880;8.650;2023-02-22T07:58:01;99916.50;;;12.33;56.92
63347;BME280;49472;49.880;8.650;2023-02-22T08:00:29;99921.72;;;12.22;57.27
63347;BME280;49472;49.880;8.650;2023-02-22T08:02:56;99918.81;;;12.15;56.98
63347;BME280;49472;49.880;8.650;2023-02-22T08:05:24;99910.72;;;13.02;55.49
63347;BME280;49472;49.880;8.650;2023-02-22T08:07:50;99906.84;;;12.67;55.05
63347;BME280;49472;49.880;8.650;2023-02-22T08:10:16;99909.19;;;12.90;55.79
63347;BME280;49472;49.880;8.650;2023-02-22T08:12:41;99907.16;;;12.84;54.92
63347;BME280;49472;49.880;8.650;2023-02-22T08:15:09;99910.41;;;13.26;54.22
63347;BME280;49472;49.880;8.650;2023-02-22T08:17:38;99897.53;;;13.16;53.37
63347;BME280;49472;49.880;8.650;2023-02-22T08:20:04;99905.78;;;12.79;54.98
63347;BME280;49472;49.880;8.650;2023-02-22T08:22:29;99903.59;;;13.06;54.65
63347;BME280;49472;49.880;8.650;2023-02-22T08:24:55;99893.31;;;13.06;54.19
63347;BME280;49472;49.880;8.650;2023-02-22T08:27:24;99905.72;;;13.51;53.54
63347;BME280;49472;49.880;8.650;2023-02-22T08:29:50;99899.94;;;13.49;53.51
63347;BME280;49472;49.880;8.650;2023-02-22T08:32:16;99904.56;;;11.14;58.78
63347;BME280;49472;49.880;8.650;2023-02-22T08:34:42;99906.94;;;10.72;60.29
63347;BME280;49472;49.880;8.650;2023-02-22T08:37:07;99907.53;;;10.87;61.32
63347;BME280;49472;49.880;8.650;2023-02-22T08:39:33;99914.13;;;10.67;61.59
63347;BME280;49472;49.880;8.650;2023-02-22T08:41:58;99904.59;;;10.80;61.49
63347;BME280;49472;49.880;8.650;2023-02-22T08:44:23;99906.34;;;10.91;61.28
63347;BME280;49472;49.880;8.650;2023-02-22T08:46:48;99901.13;;;10.93;61.67
63347;BME280;49472;49.880;8.650;2023-02-22T08:49:15;99905.88;;;10.86;61.67
63347;BME280;49472;49.880;8.650;2023-02-22T08:51:40;99902.72;;;11.27;61.75
63347;BME280;49472;49.880;8.650;2023-02-22T08:54:06;99909.44;;;11.28;61.90
63347;BME280;49472;49.880;8.650;2023-02-22T08:56:31;99904.47;;;11.59;60.13
63347;BME280;49472;49.880;8.650;2023-02-22T08:58:57;99898.09;;;11.10;61.96
63347;BME280;49472;49.880;8.650;2023-02-22T09:01:23;99902.22;;;11.34;61.83
63347;BME280;49472;49.880;8.650;2023-02-22T09:03:49;99908.66;;;11.05;62.24
63347;BME280;49472;49.880;8.650;2023-02-22T09:06:14;99909.09;;;11.22;61.99
63347;BME280;49472;49.880;8.650;2023-02-22T09:08:39;99906.69;;;10.98;62.90
63347;BME280;49472;49.880;8.650;2023-02-22T09:11:05;99906.13;;;11.49;61.59
63347;BME280;49472;49.880;8.650;2023-02-22T09:13:31;99902.31;;;11.87;60.87
63347;BME280;49472;49.880;8.650;2023-02-22T09:15:56;99903.34;;;12.16;60.15
63347;BME280;49472;49.880;8.650;2023-02-22T09:18:22;99895.69;;;12.26;59.94
63347;BME280;49472;49.880;8.650;2023-02-22T09:20:47;99897.31;;;11.74;61.06
63347;BME280;49472;49.880;8.650;2023-02-22T09:23:12;99903.25;;;12.07;60.51
63347;BME280;49472;49.880;8.650;2023-02-22T09:25:38;99908.16;;;11.34;61.96
63347;BME280;49472;49.880;8.650;2023-02-22T09:28:05;99904.06;;;11.32;62.74
63347;BME280;49472;49.880;8.650;2023-02-22T09:30:33;99892.13;;;12.18;60.61
63347;BME280;49472;49.880;8.650;2023-02-22T09:33:09;99888.72;;;12.38;59.57
63347;BME280;49472;49.880;8.650;2023-02-22T09:35:36;99886.69;;;12.63;59.03
63347;BME280;49472;49.880;8.650;2023-02-22T09:38:03;99888.56;;;12.60;60.08
63347;BME280;49472;49.880;8.650;2023-02-22T09:40:32;99883.81;;;12.25;60.73
63347;BME280;49472;49.880;8.650;2023-02-22T09:45:33;99878.47;;;12.69;59.79
63347;BME280;49472;49.880;8.650;2023-02-22T09:48:02;99871.31;;;12.63;59.57
63347;BME280;49472;49.880;8.650;2023-02-22T09:50:38;99870.88;;;13.08;59.04
63347;BME280;49472;49.880;8.650;2023-02-22T09:53:22;99869.59;;;12.73;59.87
63347;BME280;49472;49.880;8.650;2023-02-22T09:56:00;99866.84;;;12.95;59.43
63347;BME280;49472;49.880;8.650;2023-02-22T09:58:34;99867.19;;;13.70;57.54
63347;BME280;49472;49.880;8.650;2023-02-22T10:01:26;99870.84;;;13.58;57.98
63347;BME280;49472;49.880;8.650;2023-02-22T10:09:25;99857.75;;;14.74;56.55
63347;BME280;49472;49.880;8.650;2023-02-22T10:11:58;99860.09;;;14.11;57.03
63347;BME280;49472;49.880;8.650;2023-02-22T10:19:52;99852.22;;;14.97;55.57
63347;BME280;49472;49.880;8.650;2023-02-22T10:25:20;99855.91;;;15.12;54.32
63347;BME280;49472;49.880;8.650;2023-02-22T10:30:57;99845.31;;;15.51;53.95
63347;BME280;49472;49.880;8.650;2023-02-22T10:33:29;99847.75;;;15.17;53.64
63347;BME280;49472;49.880;8.650;2023-02-22T10:35:56;99845.13;;;14.81;54.26
63347;BME280;49472;49.880;8.650;2023-02-22T10:38:25;99855.53;;;15.07;53.64
63347;BME280;49472;49.880;8.650;2023-02-22T10:43:39;99840.09;;;16.05;52.54
63347;BME280;49472;49.880;8.650;2023-02-22T10:46:07;99842.84;;;16.03;52.65
63347;BME280;49472;49.880;8.650;2023-02-22T10:48:37;99840.69;;;15.73;52.26
63347;BME280;49472;49.880;8.650;2023-02-22T10:51:06;99846.91;;;15.88;51.62
63347;BME280;49472;49.880;8.650;2023-02-22T10:53:33;99836.34;;;15.73;51.89
63347;BME280;49472;49.880;8.650;2023-02-22T10:56:20;99844.00;;;15.83;52.27
63347;BME280;49472;49.880;8.650;2023-02-22T11:01:35;99841.56;;;16.34;51.49
63347;BME280;49472;49.880;8.650;2023-02-22T11:04:13;99833.94;;;15.98;51.45
63347;BME280;49472;49.880;8.650;2023-02-22T11:06:47;99835.75;;;16.05;51.86
63347;BME280;49472;49.880;8.650;2023-02-22T11:09:15;99829.50;;;16.08;52.34
63347;BME280;49472;49.880;8.650;2023-02-22T11:11:44;99828.59;;;16.60;51.37
63347;BME280;49472;49.880;8.650;2023-02-22T11:14:10;99830.00;;;16.97;50.64
63347;BME280;49472;49.880;8.650;2023-02-22T11:16:40;99828.72;;;16.92;50.77
63347;BME280;49472;49.880;8.650;2023-02-22T11:24:10;99815.56;;;16.35;52.03
63347;BME280;49472;49.880;8.650;2023-02-22T11:26:41;99803.66;;;16.77;51.36
63347;BME280;49472;49.880;8.650;2023-02-22T11:29:14;99809.19;;;16.82;51.47
63347;BME280;49472;49.880;8.650;2023-02-22T11:31:44;99803.34;;;16.80;51.39
63347;BME280;49472;49.880;8.650;2023-02-22T11:34:38;99807.47;;;17.23;50.54
63347;BME280;49472;49.880;8.650;2023-02-22T11:40:22;99789.03;;;17.84;49.32
63347;BME280;49472;49.880;8.650;2023-02-22T11:42:49;99798.72;;;17.57;49.18
63347;BME280;49472;49.880;8.650;2023-02-22T11:45:29;99794.19;;;17.67;49.13
63347;BME280;49472;49.880;8.650;2023-02-22T11:47:58;99792.72;;;17.97;48.37
63347;BME280;49472;49.880;8.650;2023-02-22T11:58:49;99768.34;;;19.17;46.08
63347;BME280;49472;49.880;8.650;2023-02-22T12:02:29;99764.22;;;19.22;45.52
63347;BME280;49472;49.880;8.650;2023-02-22T12:09:57;99758.94;;;19.39;46.41
63347;BME280;49472;49.880;8.650;2023-02-22T12:18:02;99759.38;;;19.42;45.00
63347;BME280;49472;49.880;8.650;2023-02-22T12:20:54;99764.41;;;19.21;45.11
63347;BME280;49472;49.880;8.650;2023-02-22T12:26:08;99745.38;;;19.96;43.58
63347;BME280;49472;49.880;8.650;2023-02-22T12:28:40;99746.56;;;19.79;43.47
63347;BME280;49472;49.880;8.650;2023-02-22T12:31:20;99741.31;;;20.38;44.77
63347;BME280;49472;49.880;8.650;2023-02-22T12:33:52;99743.06;;;21.66;43.07
63347;BME280;49472;49.880;8.650;2023-02-22T12:36:27;99738.25;;;22.60;40.94
63347;BME280;49472;49.880;8.650;2023-02-22T12:39:02;99737.34;;;22.26;41.32
63347;BME280;49472;49.880;8.650;2023-02-22T12:41:39;99735.38;;;20.59;42.28
63347;BME280;49472;49.880;8.650;2023-02-22T12:44:17;99739.13;;;21.42;41.68
63347;BME280;49472;49.880;8.650;2023-02-22T12:46:54;99736.06;;;22.08;40.11
63347;BME280;49472;49.880;8.650;2023-02-22T12:49:35;99735.47;;;22.13;40.97
63347;BME280;49472;49.880;8.650;2023-02-22T12:52:09;99729.03;;;22.70;39.24
63347;BME280;49472;49.880;8.650;2023-02-22T12:54:58;99727.03;;;22.79;39.15
63347;BME280;49472;49.880;8.650;2023-02-22T13:00:20;99721.50;;;23.94;37.29
63347;BME280;49472;49.880;8.650;2023-02-22T13:03:24;99724.06;;;24.84;35.53
63347;BME280;49472;49.880;8.650;2023-02-22T13:06:01;99715.91;;;25.79;37.01
63347;BME280;49472;49.880;8.650;2023-02-22T13:08:33;99720.31;;;26.15;34.76
63347;BME280;49472;49.880;8.650;2023-02-22T13:14:27;99708.97;;;24.16;36.36
63347;BME280;49472;49.880;8.650;2023-02-22T13:20:07;99718.50;;;24.99;36.64
63347;BME280;49472;49.880;8.650;2023-02-22T13:23:04;99720.13;;;25.25;36.23
63347;BME280;49472;49.880;8.650;2023-02-22T13:25:47;99709.41;;;25.88;34.99
63347;BME280;49472;49.880;8.650;2023-02-22T13:31:18;99706.91;;;25.56;34.79
63347;BME280;49472;49.880;8.650;2023-02-22T13:34:05;99710.25;;;25.27;35.30
63347;BME280;49472;49.880;8.650;2023-02-22T13:37:05;99698.03;;;26.55;34.40
63347;BME280;49472;49.880;8.650;2023-02-22T13:40:03;99707.09;;;25.18;34.35
63347;BME280;49472;49.880;8.650;2023-02-22T13:45:19;99695.06;;;25.72;34.98
63347;BME280;49472;49.880;8.650;2023-02-22T13:48:20;99688.03;;;26.75;33.49
63347;BME280;49472;49.880;8.650;2023-02-22T13:53:26;99692.16;;;24.37;34.97
63347;BME280;49472;49.880;8.650;2023-02-22T13:55:56;99691.84;;;23.81;36.40
63347;BME280;49472;49.880;8.650;2023-02-22T13:58:23;99689.72;;;23.45;36.62
63347;BME280;49472;49.880;8.650;2023-02-22T14:00:51;99689.59;;;23.92;36.84
63347;BME280;49472;49.880;8.650;2023-02-22T14:05:58;99682.78;;;25.11;35.14
63347;BME280;49472;49.880;8.650;2023-02-22T14:10:53;99683.75;;;24.66;35.72
63347;BME280;49472;49.880;8.650;2023-02-22T14:13:26;99680.22;;;24.22;36.38
63347;BME280;49472;49.880;8.650;2023-02-22T14:18:38;99671.69;;;24.34;37.16
63347;BME280;49472;49.880;8.650;2023-02-22T14:23:44;99668.91;;;23.97;36.04
63347;BME280;49472;49.880;8.650;2023-02-22T14:28:39;99653.97;;;25.73;33.65
63347;BME280;49472;49.880;8.650;2023-02-22T14:31:12;99659.88;;;24.63;34.31
63347;BME280;49472;49.880;8.650;2023-02-22T14:33:58;99668.97;;;24.54;34.46
63347;BME280;49472;49.880;8.650;2023-02-22T14:39:16;99660.69;;;23.08;36.70
63347;BME280;49472;49.880;8.650;2023-02-22T14:42:03;99659.75;;;24.44;35.58
63347;BME280;49472;49.880;8.650;2023-02-22T14:44:55;99657.31;;;24.81;35.00
63347;BME280;49472;49.880;8.650;2023-02-22T14:47:38;99657.97;;;25.20;34.78
63347;BME280;49472;49.880;8.650;2023-02-22T14:50:15;99648.94;;;25.71;34.20
63347;BME280;49472;49.880;8.650;2023-02-22T14:52:44;99655.22;;;24.65;34.78
63347;BME280;49472;49.880;8.650;2023-02-22T14:55:18;99651.38;;;24.67;35.14
63347;BME280;49472;49.880;8.650;2023-02-22T14:57:52;99653.31;;;24.79;33.83
63347;BME280;49472;49.880;8.650;2023-02-22T15:00:26;99657.94;;;24.52;35.29